createdAt,value
2019-03-01T00:01:31.211Z,49.90
2019-03-01T00:04:48.150Z,49.90
2019-03-01T00:08:16.671Z,49.90
2019-03-01T00:11:36.354Z,49.90
2019-03-01T00:15:02.431Z,50.00
2019-03-01T00:18:20.927Z,50.00
2019-03-01T00:21:40.768Z,50.00
2019-03-01T00:25:44.752Z,50.20
2019-03-01T00:29:26.014Z,50.30
2019-03-01T00:32:50.573Z,50.60
2019-03-01T00:36:33.198Z,50.60
2019-03-01T00:40:18.450Z,50.60
2019-03-01T00:43:36.188Z,50.60
2019-03-01T00:46:40.495Z,50.70
2019-03-01T00:49:44.971Z,50.70
2019-03-01T00:52:51.566Z,50.60
2019-03-01T00:55:55.903Z,50.90
2019-03-01T00:59:00.201Z,51.00
2019-03-01T01:02:04.942Z,50.90
2019-03-01T01:05:09.374Z,51.00
2019-03-01T01:08:13.723Z,50.90
2019-03-01T01:11:18.022Z,50.80
2019-03-01T01:14:22.734Z,50.90
2019-03-01T01:17:27.443Z,51.00
2019-03-01T01:20:31.886Z,51.10
2019-03-01T01:23:36.694Z,51.00
2019-03-01T01:26:41.756Z,50.90
2019-03-01T01:29:46.554Z,51.00
2019-03-01T01:32:51.285Z,51.10
2019-03-01T01:35:56.035Z,51.00
2019-03-01T01:39:01.586Z,51.00
2019-03-01T01:42:07.011Z,51.00
2019-03-01T01:45:11.988Z,51.10
2019-03-01T01:48:18.135Z,51.10
2019-03-01T01:51:22.945Z,51.10
2019-03-01T01:54:27.334Z,51.10
2019-03-01T01:57:32.037Z,51.00
2019-03-01T02:00:36.769Z,51.10
2019-03-01T02:03:41.515Z,51.10
2019-03-01T02:06:45.838Z,51.00
2019-03-01T02:09:50.148Z,51.10
2019-03-01T02:12:55.644Z,51.10
2019-03-01T02:16:19.009Z,51.20
2019-03-01T02:19:23.662Z,51.10
2019-03-01T02:22:28.419Z,51.20
2019-03-01T02:25:33.620Z,51.30
2019-03-01T02:28:39.871Z,51.20
2019-03-01T02:31:49.843Z,51.30
2019-03-01T02:34:55.350Z,51.30
2019-03-01T02:37:59.770Z,51.30
2019-03-01T02:41:04.104Z,51.30
2019-03-01T02:44:09.626Z,51.30
2019-03-01T02:47:14.019Z,52.00
2019-03-01T02:50:19.239Z,51.30
2019-03-01T02:53:24.384Z,51.40
2019-03-01T02:56:28.681Z,51.40
2019-03-01T02:59:33.057Z,51.40
2019-03-01T03:02:37.389Z,51.40
2019-03-01T03:05:59.463Z,51.40
2019-03-01T03:09:05.751Z,51.60
2019-03-01T03:12:10.107Z,51.40
2019-03-01T03:15:15.851Z,51.50
2019-03-01T03:18:20.249Z,51.60
2019-03-01T03:21:24.624Z,51.60
2019-03-01T03:24:28.984Z,51.60
2019-03-01T03:27:52.671Z,51.60
2019-03-01T03:30:57.851Z,51.30
2019-03-01T03:34:03.380Z,51.70
2019-03-01T03:37:08.467Z,51.70
2019-03-01T03:40:13.070Z,51.70
2019-03-01T03:43:19.033Z,51.80
2019-03-01T03:46:23.370Z,51.70
2019-03-01T03:49:27.708Z,51.80
2019-03-01T03:52:32.364Z,51.80
2019-03-01T03:55:36.833Z,51.80
2019-03-01T03:58:41.146Z,51.70
2019-03-01T04:01:45.523Z,51.70
2019-03-01T04:04:49.852Z,51.80
2019-03-01T04:07:54.194Z,52.50
2019-03-01T04:10:59.588Z,51.80
2019-03-01T04:14:06.478Z,51.80
2019-03-01T04:17:11.298Z,52.00
2019-03-01T04:20:17.118Z,51.80
2019-03-01T04:23:21.926Z,52.00
2019-03-01T04:26:26.607Z,51.90
2019-03-01T04:29:31.072Z,51.80
2019-03-01T04:32:35.863Z,51.90
2019-03-01T04:35:40.595Z,52.00
2019-03-01T04:38:44.878Z,52.00
2019-03-01T04:42:08.562Z,52.00
2019-03-01T04:45:13.435Z,51.90
2019-03-01T04:48:17.751Z,52.00
2019-03-01T04:51:22.496Z,52.20
2019-03-01T04:54:26.837Z,52.20
2019-03-01T04:57:32.314Z,52.40
2019-03-01T05:00:36.620Z,52.40
2019-03-01T05:03:40.927Z,52.30
2019-03-01T05:06:45.234Z,52.50
2019-03-01T05:09:49.623Z,52.40
2019-03-01T05:13:13.395Z,52.50
2019-03-01T05:16:17.759Z,52.50
2019-03-01T05:19:41.435Z,52.40
2019-03-01T05:22:45.768Z,52.10
2019-03-01T05:25:50.109Z,52.30
2019-03-01T05:28:54.758Z,52.40
2019-03-01T05:31:59.122Z,52.40
2019-03-01T05:35:03.466Z,52.50
2019-03-01T05:38:08.199Z,52.60
2019-03-01T05:41:12.518Z,52.70
2019-03-01T05:44:19.167Z,52.60
2019-03-01T05:47:23.582Z,52.70
2019-03-01T05:50:28.420Z,52.80
2019-03-01T05:53:33.859Z,53.00
2019-03-01T05:56:38.182Z,53.10
2019-03-01T05:59:42.970Z,53.10
2019-03-01T06:03:19.432Z,53.10
2019-03-01T06:06:33.913Z,53.20
2019-03-01T06:09:57.057Z,53.40
2019-03-01T06:13:25.462Z,53.50
2019-03-01T06:17:01.676Z,53.40
2019-03-01T06:20:16.285Z,53.50
2019-03-01T06:23:52.001Z,53.60
2019-03-01T06:27:32.667Z,53.60
2019-03-01T06:31:30.698Z,53.70
2019-03-01T06:35:15.068Z,53.60
2019-03-01T06:39:11.072Z,53.60
2019-03-01T06:42:40.186Z,53.60
2019-03-01T06:46:22.955Z,53.70
2019-03-01T06:49:46.465Z,54.00
2019-03-01T06:52:50.788Z,53.90
2019-03-01T06:56:03.137Z,54.00
2019-03-01T06:59:08.263Z,54.10
2019-03-01T07:02:16.754Z,54.10
2019-03-01T07:05:21.122Z,54.20
2019-03-01T07:08:25.719Z,54.30
2019-03-01T07:11:30.065Z,54.50
2019-03-01T07:14:34.711Z,54.60
2019-03-01T07:17:39.063Z,54.60
2019-03-01T07:20:43.497Z,54.60
2019-03-01T07:23:48.251Z,54.80
2019-03-01T07:26:52.613Z,55.00
2019-03-01T07:29:57.328Z,55.00
2019-03-01T07:33:01.688Z,55.10
2019-03-01T07:36:06.060Z,55.10
2019-03-01T07:39:10.702Z,55.10
2019-03-01T07:42:15.368Z,55.10
2019-03-01T07:45:19.839Z,55.20
2019-03-01T07:48:24.161Z,55.20
2019-03-01T07:51:30.760Z,55.30
2019-03-01T07:54:34.639Z,55.30
2019-03-01T07:57:39.089Z,55.30
2019-03-01T08:00:43.443Z,55.50
2019-03-01T08:03:52.278Z,56.30
2019-03-01T08:06:54.007Z,56.70
2019-03-01T08:09:58.399Z,57.40
2019-03-01T08:13:02.905Z,57.30
2019-03-01T08:16:09.122Z,57.70
2019-03-01T08:19:17.105Z,58.00
2019-03-01T08:22:20.866Z,58.30
2019-03-01T08:25:28.261Z,58.50
2019-03-01T08:28:33.407Z,58.80
2019-03-01T08:31:37.695Z,58.90
2019-03-01T08:34:44.284Z,59.10
2019-03-01T08:37:49.739Z,59.20
2019-03-01T08:40:57.229Z,59.40
2019-03-01T08:44:01.580Z,59.30
2019-03-01T08:47:07.486Z,60.60
2019-03-01T08:50:14.147Z,59.90
2019-03-01T08:53:18.469Z,60.00
2019-03-01T08:56:26.084Z,60.10
2019-03-01T08:59:32.825Z,60.20
2019-03-01T09:02:37.200Z,60.30
2019-03-01T09:05:41.519Z,60.60
2019-03-01T09:08:46.802Z,60.70
2019-03-01T09:11:52.545Z,60.90
2019-03-01T09:14:57.105Z,61.40
2019-03-01T09:18:01.867Z,61.40
2019-03-01T09:21:12.233Z,61.70
2019-03-01T09:24:14.049Z,61.80
2019-03-01T09:27:18.333Z,62.10
2019-03-01T09:30:23.678Z,62.30
2019-03-01T09:33:28.029Z,62.40
2019-03-01T09:36:46.857Z,62.60
2019-03-01T09:39:53.578Z,62.70
2019-03-01T09:42:57.319Z,62.90
2019-03-01T09:46:01.673Z,63.00
2019-03-01T09:49:06.072Z,63.20
2019-03-01T09:52:10.815Z,63.30
2019-03-01T09:55:15.185Z,63.60
2019-03-01T09:58:19.570Z,63.50
2019-03-01T10:01:24.373Z,63.50
2019-03-01T10:04:29.149Z,63.50
2019-03-01T10:07:33.784Z,63.50
2019-03-01T10:10:38.133Z,63.70
2019-03-01T10:13:44.527Z,63.70
2019-03-01T10:16:53.467Z,63.80
2019-03-01T10:19:57.695Z,63.90
2019-03-01T10:23:01.932Z,64.00
2019-03-01T10:26:06.290Z,64.00
2019-03-01T10:29:10.959Z,64.20
2019-03-01T10:32:15.716Z,64.40
2019-03-01T10:35:21.499Z,64.60
2019-03-01T10:38:27.878Z,64.60
2019-03-01T10:41:32.599Z,64.70
2019-03-01T10:44:37.309Z,64.90
2019-03-01T10:47:43.389Z,65.00
2019-03-01T10:50:48.411Z,65.10
2019-03-01T10:53:53.146Z,65.30
2019-03-01T10:56:57.531Z,65.50
2019-03-01T11:00:01.884Z,65.40
2019-03-01T11:03:07.254Z,65.40
2019-03-01T11:06:11.565Z,65.40
2019-03-01T11:09:15.964Z,65.50
2019-03-01T11:12:20.354Z,65.70
2019-03-01T11:15:25.387Z,65.70
2019-03-01T11:18:29.799Z,65.60
2019-03-01T11:21:34.461Z,65.50
2019-03-01T11:24:39.821Z,65.60
2019-03-01T11:27:46.451Z,65.70
2019-03-01T11:30:50.996Z,66.00
2019-03-01T11:33:55.322Z,66.30
2019-03-01T11:37:02.704Z,66.50
2019-03-01T11:40:08.517Z,66.30
2019-03-01T11:43:12.835Z,66.70
2019-03-01T11:46:17.133Z,66.60
2019-03-01T11:49:21.948Z,66.50
2019-03-01T11:52:26.272Z,66.70
2019-03-01T11:55:31.155Z,66.60
2019-03-01T11:58:35.883Z,66.60
2019-03-01T12:01:40.270Z,66.70
2019-03-01T12:04:44.731Z,66.80
2019-03-01T12:07:49.308Z,66.80
2019-03-01T12:10:54.282Z,67.10
2019-03-01T12:14:00.447Z,67.70
2019-03-01T12:17:05.658Z,67.80
2019-03-01T12:20:13.692Z,67.90
2019-03-01T12:23:18.115Z,68.10
2019-03-01T12:26:22.426Z,67.90
2019-03-01T12:29:28.062Z,67.70
2019-03-01T12:32:32.447Z,67.70
2019-03-01T12:35:36.852Z,67.70
2019-03-01T12:38:41.208Z,67.60
2019-03-01T12:41:45.591Z,67.90
2019-03-01T12:44:52.169Z,68.00
2019-03-01T12:47:56.184Z,67.30
2019-03-01T12:51:00.591Z,66.90
2019-03-01T12:54:05.727Z,66.90
2019-03-01T12:57:10.078Z,66.40
2019-03-01T13:00:17.474Z,66.00
2019-03-01T13:03:21.787Z,65.60
2019-03-01T13:06:26.587Z,65.60
2019-03-01T13:09:31.297Z,65.70
2019-03-01T13:12:36.024Z,66.20
2019-03-01T13:15:40.742Z,66.40
2019-03-01T13:18:47.704Z,66.10
2019-03-01T13:21:51.826Z,66.00
2019-03-01T13:24:56.180Z,66.00
2019-03-01T13:28:00.570Z,66.30
2019-03-01T13:31:08.066Z,66.60
2019-03-01T13:34:13.729Z,66.40
2019-03-01T13:37:20.186Z,66.30
2019-03-01T13:40:24.519Z,66.20
2019-03-01T13:43:29.839Z,66.30
2019-03-01T13:46:34.198Z,66.20
2019-03-01T13:49:38.613Z,66.00
2019-03-01T13:52:42.975Z,65.70
2019-03-01T13:55:47.364Z,65.60
2019-03-01T13:58:51.687Z,66.10
2019-03-01T14:01:56.034Z,65.50
2019-03-01T14:05:21.074Z,65.40
2019-03-01T14:08:26.996Z,64.80
2019-03-01T14:11:31.371Z,63.70
2019-03-01T14:14:37.980Z,63.40
2019-03-01T14:17:42.452Z,63.20
2019-03-01T14:20:46.863Z,63.40
2019-03-01T14:23:51.228Z,63.90
2019-03-01T14:26:55.617Z,64.50
2019-03-01T14:30:11.889Z,65.30
2019-03-01T14:33:16.206Z,65.50
2019-03-01T14:36:21.998Z,66.10
2019-03-01T14:39:26.363Z,66.40
2019-03-01T14:42:30.752Z,66.60
2019-03-01T14:45:35.217Z,66.70
2019-03-01T14:48:39.557Z,66.90
2019-03-01T14:51:46.502Z,67.00
2019-03-01T14:54:49.987Z,67.20
2019-03-01T14:58:01.818Z,67.40
2019-03-01T15:01:23.230Z,67.50
2019-03-01T15:04:28.875Z,67.80
2019-03-01T15:07:33.485Z,68.00
2019-03-01T15:10:37.859Z,68.20
2019-03-01T15:13:43.392Z,68.20
2019-03-01T15:16:47.742Z,68.40
2019-03-01T15:19:52.094Z,68.40
2019-03-01T15:22:57.070Z,68.60
2019-03-01T15:26:01.996Z,68.80
2019-03-01T15:29:09.354Z,68.80
2019-03-01T15:32:13.765Z,68.60
2019-03-01T15:35:18.476Z,68.70
2019-03-01T15:38:23.830Z,68.90
2019-03-01T15:41:29.785Z,68.90
2019-03-01T15:44:34.158Z,68.80
2019-03-01T15:47:39.096Z,68.90
2019-03-01T15:50:43.508Z,68.90
2019-03-01T15:53:48.180Z,69.00
2019-03-01T15:56:53.018Z,68.90
2019-03-01T15:59:58.815Z,69.10
2019-03-01T16:03:03.926Z,69.00
2019-03-01T16:06:10.492Z,68.90
2019-03-01T16:09:18.097Z,68.70
2019-03-01T16:12:23.116Z,68.50
2019-03-01T16:15:27.870Z,68.40
2019-03-01T16:18:35.439Z,68.50
2019-03-01T16:21:43.106Z,68.70
2019-03-01T16:24:47.026Z,68.80
2019-03-01T16:27:54.268Z,69.00
2019-03-01T16:30:58.954Z,69.30
2019-03-01T16:34:05.449Z,69.30
2019-03-01T16:37:09.895Z,69.40
2019-03-01T16:40:15.906Z,69.40
2019-03-01T16:43:20.351Z,69.50
2019-03-01T16:46:24.774Z,69.50
2019-03-01T16:49:29.133Z,69.60
2019-03-01T16:52:33.626Z,69.60
2019-03-01T16:55:37.952Z,69.70
2019-03-01T16:58:43.394Z,69.90
2019-03-01T17:01:49.221Z,69.90
2019-03-01T17:04:54.052Z,70.10
2019-03-01T17:08:00.147Z,70.00
2019-03-01T17:11:05.889Z,70.10
2019-03-01T17:14:10.477Z,70.20
2019-03-01T17:17:14.815Z,70.40
2019-03-01T17:20:19.153Z,70.60
2019-03-01T17:23:23.526Z,70.80
2019-03-01T17:26:29.954Z,71.20
2019-03-01T17:29:35.731Z,71.10
2019-03-01T17:32:40.485Z,71.00
2019-03-01T17:35:44.935Z,71.10
2019-03-01T17:38:49.259Z,71.30
2019-03-01T17:41:53.613Z,71.30
2019-03-01T17:44:58.038Z,71.40
2019-03-01T17:48:02.425Z,71.60
2019-03-01T17:51:07.151Z,71.90
2019-03-01T17:54:11.526Z,72.10
2019-03-01T17:57:15.861Z,72.40
2019-03-01T18:00:25.475Z,72.40
2019-03-01T18:03:30.810Z,72.50
2019-03-01T18:06:35.230Z,72.50
2019-03-01T18:09:39.986Z,72.50
2019-03-01T18:12:44.336Z,72.00
2019-03-01T18:15:49.685Z,72.00
2019-03-01T18:18:56.527Z,71.80
2019-03-01T18:22:00.874Z,71.80
2019-03-01T18:25:07.684Z,72.10
2019-03-01T18:28:12.055Z,72.20
2019-03-01T18:31:16.644Z,72.30
2019-03-01T18:34:21.092Z,72.60
2019-03-01T18:37:25.373Z,72.60
2019-03-01T18:40:30.126Z,73.40
2019-03-01T18:43:37.690Z,72.90
2019-03-01T18:46:42.014Z,73.10
2019-03-01T18:53:51.691Z,73.30
2019-03-01T18:56:56.049Z,73.40
2019-03-01T19:00:01.352Z,73.50
2019-03-01T19:03:08.285Z,73.70
2019-03-01T19:06:15.921Z,73.90
2019-03-01T19:09:18.821Z,73.70
2019-03-01T19:12:23.167Z,73.70
2019-03-01T19:15:27.579Z,73.50
2019-03-01T19:18:31.995Z,73.30
2019-03-01T19:21:36.458Z,73.20
2019-03-01T19:24:43.337Z,73.90
2019-03-01T19:27:50.484Z,73.10
2019-03-01T19:30:53.085Z,73.30
2019-03-01T19:33:58.133Z,73.50
2019-03-01T19:37:04.328Z,73.80
2019-03-01T19:40:13.378Z,73.50
2019-03-01T19:43:19.314Z,73.60
2019-03-01T19:46:24.096Z,73.70
2019-03-01T19:49:29.657Z,73.80
2019-03-01T19:52:33.999Z,73.60
2019-03-01T19:55:43.946Z,73.40
2019-03-01T19:58:49.113Z,73.30
2019-03-01T20:01:56.198Z,73.00
2019-03-01T20:05:00.386Z,73.00
2019-03-01T20:08:04.889Z,72.30
2019-03-01T20:11:10.139Z,72.20
2019-03-01T20:14:14.522Z,72.20
2019-03-01T20:17:18.943Z,71.90
2019-03-01T20:20:29.870Z,72.50
2019-03-01T20:23:32.744Z,73.00
2019-03-01T20:26:37.083Z,73.40
2019-03-01T20:29:41.449Z,73.60
2019-03-01T20:32:47.421Z,73.80
2019-03-01T20:35:54.684Z,73.90
2019-03-01T20:38:59.116Z,74.10
2019-03-01T20:42:05.557Z,74.20
2019-03-01T20:45:18.079Z,74.20
2019-03-01T20:48:25.593Z,73.90
2019-03-01T20:51:28.552Z,75.10
2019-03-01T20:54:32.893Z,74.60
2019-03-01T20:57:37.298Z,74.50
2019-03-01T21:00:42.756Z,74.10
2019-03-01T21:03:47.566Z,74.10
2019-03-01T21:06:51.958Z,73.90
2019-03-01T21:09:56.697Z,74.10
2019-03-01T21:13:01.163Z,74.20
2019-03-01T21:16:05.576Z,74.30
2019-03-01T21:19:11.081Z,74.00
2019-03-01T21:22:15.459Z,74.00
2019-03-01T21:25:20.280Z,73.70
2019-03-01T21:28:27.138Z,73.70
2019-03-01T21:31:31.751Z,73.60
2019-03-01T21:34:39.560Z,73.50
2019-03-01T21:37:46.598Z,73.00
2019-03-01T21:40:50.955Z,72.80
2019-03-01T21:43:55.373Z,72.60
2019-03-01T21:46:59.801Z,72.70
2019-03-01T21:50:07.542Z,72.80
2019-03-01T21:53:11.303Z,73.20
2019-03-01T21:56:16.089Z,73.30
2019-03-01T21:59:20.478Z,73.40
2019-03-01T22:02:25.079Z,73.70
2019-03-01T22:05:32.380Z,73.80
2019-03-01T22:08:40.546Z,73.70
2019-03-01T22:11:45.822Z,73.70
2019-03-01T22:14:51.527Z,73.80
2019-03-01T22:17:58.380Z,73.80
2019-03-01T22:21:02.750Z,74.20
2019-03-01T22:24:09.123Z,74.50
2019-03-01T22:27:25.321Z,74.50
2019-03-01T22:30:29.645Z,74.40
2019-03-01T22:33:34.115Z,74.20
2019-03-01T22:36:38.566Z,74.20
2019-03-01T22:39:42.906Z,74.20
2019-03-01T22:42:49.677Z,74.00
2019-03-01T22:45:54.737Z,74.00
2019-03-01T22:48:59.082Z,74.00
2019-03-01T22:52:03.406Z,74.00
2019-03-01T22:55:08.924Z,73.50
2019-03-01T22:58:13.746Z,73.30
2019-03-01T23:01:25.771Z,73.10
2019-03-01T23:04:30.316Z,73.10
2019-03-01T23:07:36.019Z,73.20
2019-03-01T23:10:40.674Z,73.20
2019-03-01T23:13:45.321Z,73.30
2019-03-01T23:16:50.660Z,73.70
2019-03-01T23:19:55.678Z,73.70
2019-03-01T23:23:00.881Z,73.80
2019-03-01T23:26:05.611Z,73.90
2019-03-01T23:29:09.936Z,74.20
2019-03-01T23:32:15.534Z,74.80
2019-03-01T23:35:22.751Z,73.80
2019-03-01T23:38:27.050Z,73.60
2019-03-01T23:41:31.734Z,73.70
2019-03-01T23:44:38.676Z,73.80
2019-03-01T23:47:42.305Z,73.70
2019-03-01T23:50:47.742Z,73.30
2019-03-01T23:53:52.057Z,73.30
2019-03-01T23:56:57.226Z,73.30
